Terminal Aerodrome Forecast
Issued by NWS Houston/Galveston, TX

Home | Current Version | Previous Version | Text Only | Print | Product List | Glossary On
Versions: 1 2 3 4 5 6 7 8 9 10 11 12 13 14 15 16
000
FTUS44 KHGX 172012 AAA
TAFCLL
TAF AMD
KCLL 172012Z 1720/1818 VRB05KT P6SM BKN035 OVC070
     FM180200 08004KT P6SM SCT020 BKN050
     FM180600 08004KT 4SM BR SCT015 BKN040
     FM181500 03006KT P6SM BKN040=

USA.gov is the U.S. government's official web portal to all federal, state and local government web resources and services.